createdAt,value
2022-07-30T00:03:38.881Z,10.27
2022-07-30T00:06:06.769Z,12.32
2022-07-30T00:08:35.054Z,14.85
2022-07-30T00:11:05.943Z,13.32
2022-07-30T00:13:33.649Z,16.80
2022-07-30T00:16:02.142Z,14.57
2022-07-30T00:18:30.114Z,15.07
2022-07-30T00:20:57.945Z,19.80
2022-07-30T00:23:26.495Z,19.95
2022-07-30T00:25:54.656Z,18.38
2022-07-30T00:28:22.340Z,22.30
2022-07-30T00:30:52.701Z,17.80
2022-07-30T00:33:24.662Z,19.95
2022-07-30T00:35:52.433Z,17.90
2022-07-30T00:38:20.899Z,13.00
2022-07-30T00:40:48.964Z,22.70
2022-07-30T00:43:18.463Z,22.77
2022-07-30T00:45:48.361Z,16.65
2022-07-30T00:48:17.389Z,23.85
2022-07-30T00:50:45.552Z,16.33
2022-07-30T00:53:13.412Z,24.02
2022-07-30T00:55:41.299Z,17.05
2022-07-30T00:58:09.801Z,16.75
2022-07-30T01:00:37.622Z,22.80
2022-07-30T01:03:05.886Z,19.83
2022-07-30T01:05:33.777Z,19.60
2022-07-30T01:08:01.335Z,19.83
2022-07-30T01:10:30.448Z,14.13
2022-07-30T01:12:59.549Z,15.23
2022-07-30T01:15:33.290Z,19.90
2022-07-30T01:18:04.499Z,14.73
2022-07-30T01:20:36.977Z,19.00
2022-07-30T01:23:46.901Z,14.95
2022-07-30T01:26:20.128Z,17.58
2022-07-30T01:28:54.062Z,15.50
2022-07-30T01:31:25.852Z,16.30
2022-07-30T01:33:55.400Z,16.05
2022-07-30T01:36:24.045Z,17.33
2022-07-30T01:38:54.953Z,15.73
2022-07-30T01:41:26.467Z,17.80
2022-07-30T01:43:58.488Z,16.65
2022-07-30T01:46:27.456Z,21.02
2022-07-30T01:48:56.695Z,21.13
2022-07-30T01:51:33.438Z,23.02
2022-07-30T01:54:10.136Z,16.92
2022-07-30T01:56:42.201Z,23.00
2022-07-30T01:59:14.857Z,17.90
2022-07-30T02:01:43.833Z,17.25
2022-07-30T02:04:12.160Z,15.15
2022-07-30T02:06:43.043Z,18.55
2022-07-30T02:09:21.312Z,18.40
2022-07-30T02:12:09.130Z,18.98
2022-07-30T02:14:54.885Z,17.00
2022-07-30T02:17:39.662Z,19.35
2022-07-30T02:20:15.271Z,18.38
2022-07-30T02:22:49.199Z,18.33
2022-07-30T02:25:21.415Z,21.23
2022-07-30T02:27:55.285Z,22.73
2022-07-30T02:30:28.099Z,25.85
2022-07-30T02:33:05.556Z,16.00
2022-07-30T02:35:34.944Z,19.48
2022-07-30T02:38:05.957Z,21.95
2022-07-30T02:40:34.252Z,16.40
2022-07-30T02:43:03.506Z,17.20
2022-07-30T02:45:32.765Z,28.05
2022-07-30T02:48:08.397Z,23.67
2022-07-30T02:50:40.403Z,27.67
2022-07-30T02:53:13.053Z,20.00
2022-07-30T02:55:43.998Z,21.05
2022-07-30T02:58:17.497Z,21.00
2022-07-30T03:00:50.128Z,25.67
2022-07-30T03:03:18.815Z,29.65
2022-07-30T03:05:52.589Z,20.92
2022-07-30T03:10:50.518Z,20.48
2022-07-30T03:13:20.797Z,24.00
2022-07-30T03:15:52.042Z,20.85
2022-07-30T03:18:23.564Z,15.23
2022-07-30T03:20:55.028Z,14.25
2022-07-30T03:23:24.147Z,26.05
2022-07-30T03:26:04.761Z,18.80
2022-07-30T03:28:38.001Z,19.90
2022-07-30T03:31:08.076Z,20.00
2022-07-30T03:33:39.072Z,15.95
2022-07-30T03:36:09.451Z,16.50
2022-07-30T03:38:39.698Z,18.27
2022-07-30T03:41:12.875Z,15.80
2022-07-30T03:43:42.962Z,18.95
2022-07-30T03:46:13.614Z,16.83
2022-07-30T03:48:47.138Z,14.00
2022-07-30T03:51:17.453Z,20.67
2022-07-30T03:53:48.009Z,14.65
2022-07-30T03:56:44.916Z,13.27
2022-07-30T03:59:30.196Z,17.60
2022-07-30T04:02:06.979Z,14.82
2022-07-30T04:04:53.690Z,17.08
2022-07-30T04:07:22.252Z,16.42
2022-07-30T04:09:49.954Z,13.35
2022-07-30T04:12:33.634Z,14.45
2022-07-30T04:15:01.866Z,21.27
2022-07-30T04:17:56.315Z,14.55
2022-07-30T04:20:32.939Z,13.93
2022-07-30T04:23:02.090Z,20.05
2022-07-30T04:25:32.207Z,22.67
2022-07-30T04:28:03.548Z,20.80
2022-07-30T04:30:36.962Z,19.80
2022-07-30T04:33:05.926Z,13.25
2022-07-30T04:35:50.209Z,24.02
2022-07-30T04:38:26.329Z,18.90
2022-07-30T04:40:54.953Z,18.08
2022-07-30T04:43:26.951Z,14.05
2022-07-30T04:45:57.692Z,18.52
2022-07-30T04:48:29.748Z,15.43
2022-07-30T04:51:26.059Z,15.65
2022-07-30T04:53:55.678Z,18.23
2022-07-30T04:56:24.788Z,16.92
2022-07-30T04:58:53.452Z,16.55
2022-07-30T05:01:40.879Z,16.02
2022-07-30T05:04:11.874Z,18.27
2022-07-30T05:06:46.569Z,21.77
2022-07-30T05:09:17.771Z,17.88
2022-07-30T05:11:52.486Z,20.40
2022-07-30T05:14:21.822Z,23.27
2022-07-30T05:16:50.483Z,16.80
2022-07-30T05:19:19.375Z,19.02
2022-07-30T05:21:48.275Z,21.05
2022-07-30T05:24:17.203Z,21.23
2022-07-30T05:26:50.972Z,21.80
2022-07-30T05:29:22.482Z,34.25
2022-07-30T05:32:02.483Z,28.77
2022-07-30T05:34:32.468Z,30.02
2022-07-30T05:37:01.094Z,25.63
2022-07-30T05:39:29.776Z,22.23
2022-07-30T05:42:21.861Z,22.25
2022-07-30T05:44:53.111Z,24.65
2022-07-30T05:47:22.646Z,23.20
2022-07-30T05:49:51.706Z,26.90
2022-07-30T05:52:19.968Z,24.23
2022-07-30T05:54:49.350Z,20.38
2022-07-30T05:57:43.299Z,28.33
2022-07-30T06:00:15.759Z,26.25
2022-07-30T06:02:53.011Z,22.63
2022-07-30T06:05:27.398Z,28.40
2022-07-30T06:07:58.798Z,27.88
2022-07-30T06:10:29.608Z,26.08
2022-07-30T06:12:57.642Z,25.88
2022-07-30T06:15:26.511Z,26.55
2022-07-30T06:18:02.101Z,23.48
2022-07-30T06:20:57.486Z,26.13
2022-07-30T06:23:40.538Z,25.05
2022-07-30T06:26:17.772Z,22.33
2022-07-30T06:28:47.233Z,21.98
2022-07-30T06:31:19.859Z,22.35
2022-07-30T06:33:47.620Z,19.95
2022-07-30T06:36:17.360Z,25.10
2022-07-30T06:39:00.566Z,18.50
2022-07-30T06:41:48.924Z,20.83
2022-07-30T06:44:17.882Z,21.05
2022-07-30T06:47:08.055Z,25.50
2022-07-30T06:49:40.155Z,22.70
2022-07-30T06:52:18.338Z,18.15
2022-07-30T06:54:50.592Z,18.70
2022-07-30T07:00:30.848Z,21.88
2022-07-30T07:03:03.166Z,21.77
2022-07-30T07:05:37.353Z,16.20
2022-07-30T07:08:05.984Z,22.55
2022-07-30T07:10:38.365Z,13.13
2022-07-30T07:13:29.308Z,17.77
2022-07-30T07:15:58.671Z,14.52
2022-07-30T07:18:27.837Z,15.20
2022-07-30T07:21:01.022Z,16.92
2022-07-30T07:23:39.825Z,15.52
2022-07-30T07:26:32.981Z,11.27
2022-07-30T07:29:04.824Z,17.17
2022-07-30T07:32:05.641Z,19.88
2022-07-30T07:34:23.959Z,12.95
2022-07-30T07:36:52.116Z,13.35
2022-07-30T07:39:22.555Z,16.55
2022-07-30T07:41:50.992Z,14.75
2022-07-30T07:44:24.109Z,12.30
2022-07-30T07:46:52.874Z,12.10
2022-07-30T07:49:21.988Z,14.25
2022-07-30T07:51:51.985Z,14.05
2022-07-30T07:54:22.804Z,14.43
2022-07-30T07:56:56.778Z,14.18
2022-07-30T07:59:46.791Z,9.38
2022-07-30T08:02:26.842Z,10.23
2022-07-30T08:05:06.779Z,9.77
2022-07-30T08:08:14.098Z,9.52
2022-07-30T08:11:03.270Z,9.38
2022-07-30T08:13:52.634Z,13.85
2022-07-30T08:16:45.999Z,7.57
2022-07-30T08:19:34.493Z,9.10
2022-07-30T08:22:15.748Z,12.73
2022-07-30T08:24:47.462Z,8.90
2022-07-30T08:27:22.379Z,8.15
2022-07-30T08:29:59.928Z,7.20
2022-07-30T08:32:27.985Z,7.80
2022-07-30T08:34:55.650Z,12.13
2022-07-30T08:37:23.505Z,8.68
2022-07-30T08:39:52.579Z,7.72
2022-07-30T08:42:20.188Z,10.80
2022-07-30T08:44:48.405Z,7.68
2022-07-30T08:47:22.148Z,9.73
2022-07-30T08:50:10.854Z,9.18
2022-07-30T08:52:58.882Z,10.60
2022-07-30T08:55:29.723Z,11.77
2022-07-30T08:57:58.308Z,7.78
2022-07-30T09:00:27.183Z,11.90
2022-07-30T09:02:57.897Z,11.80
2022-07-30T09:05:29.858Z,5.60
2022-07-30T09:07:57.716Z,7.03
2022-07-30T09:10:30.030Z,9.65
2022-07-30T09:13:39.505Z,11.77
2022-07-30T09:16:20.039Z,7.00
2022-07-30T09:18:48.905Z,7.95
2022-07-30T09:21:27.312Z,6.72
2022-07-30T09:24:15.862Z,7.50
2022-07-30T09:27:05.955Z,8.75
2022-07-30T09:30:00.142Z,7.57
2022-07-30T09:32:58.140Z,11.18
2022-07-30T09:35:56.757Z,8.27
2022-07-30T09:38:55.681Z,10.95
2022-07-30T09:41:43.444Z,12.05
2022-07-30T09:44:24.941Z,8.30
2022-07-30T09:46:56.983Z,10.73
2022-07-30T09:49:34.847Z,11.65
2022-07-30T09:52:03.354Z,8.52
2022-07-30T09:54:54.688Z,5.82
2022-07-30T09:57:28.126Z,6.82
2022-07-30T10:00:23.567Z,5.93
2022-07-30T10:03:33.933Z,6.03
2022-07-30T10:06:41.960Z,5.53
2022-07-30T10:09:27.183Z,7.47
2022-07-30T10:12:02.418Z,6.57
2022-07-30T10:14:42.879Z,7.50
2022-07-30T10:17:17.662Z,5.80
2022-07-30T10:20:22.910Z,4.82
2022-07-30T10:23:33.559Z,6.55
2022-07-30T10:26:23.259Z,6.25
2022-07-30T10:29:12.912Z,5.10
2022-07-30T10:31:49.332Z,5.78
2022-07-30T10:34:23.785Z,5.95
2022-07-30T10:36:58.836Z,4.15
2022-07-30T10:39:39.508Z,5.88
2022-07-30T10:42:26.846Z,8.88
2022-07-30T10:45:00.886Z,6.78
2022-07-30T10:47:34.524Z,5.85
2022-07-30T10:50:17.215Z,5.90
2022-07-30T10:52:52.009Z,6.68
2022-07-30T10:55:36.513Z,8.13
2022-07-30T10:58:10.408Z,7.35
2022-07-30T11:00:59.588Z,7.13
2022-07-30T11:03:41.236Z,5.03
2022-07-30T11:06:24.732Z,10.40
2022-07-30T11:08:57.362Z,4.38
2022-07-30T11:12:01.367Z,5.28
2022-07-30T11:14:20.411Z,8.25
2022-07-30T11:16:51.543Z,4.85
2022-07-30T11:19:55.786Z,4.50
2022-07-30T11:22:29.739Z,11.23
2022-07-30T11:24:59.774Z,7.55
2022-07-30T11:27:41.809Z,5.57
2022-07-30T11:30:23.590Z,6.78
2022-07-30T11:32:54.376Z,4.80
2022-07-30T11:35:35.384Z,3.13
2022-07-30T11:38:05.006Z,4.93
2022-07-30T11:40:52.604Z,6.68
2022-07-30T11:43:36.095Z,7.22
2022-07-30T11:46:10.766Z,3.90
2022-07-30T11:48:41.050Z,6.28
2022-07-30T11:51:10.251Z,6.53
2022-07-30T11:53:37.839Z,4.07
2022-07-30T11:56:06.099Z,5.30
2022-07-30T11:58:37.451Z,5.70
2022-07-30T12:01:38.680Z,7.10
2022-07-30T12:04:11.760Z,6.00
2022-07-30T12:06:49.548Z,5.25
2022-07-30T12:09:27.597Z,5.80
2022-07-30T12:11:56.894Z,3.60
2022-07-30T12:14:24.535Z,4.45
2022-07-30T12:16:53.802Z,4.88
2022-07-30T12:19:22.422Z,3.60
2022-07-30T12:21:53.533Z,4.85
2022-07-30T12:24:27.320Z,4.95
2022-07-30T12:27:08.754Z,4.45
2022-07-30T12:29:37.131Z,6.57
2022-07-30T12:32:05.209Z,2.22
2022-07-30T12:34:33.958Z,2.92
2022-07-30T12:37:10.801Z,5.57
2022-07-30T12:39:40.510Z,2.47
2022-07-30T12:42:18.185Z,3.50
2022-07-30T12:44:46.676Z,4.05
2022-07-30T12:47:24.462Z,4.85
2022-07-30T12:49:53.692Z,5.07
2022-07-30T12:52:38.382Z,6.03
2022-07-30T12:55:09.673Z,9.32
2022-07-30T12:57:57.509Z,4.90
2022-07-30T13:00:27.511Z,5.80
2022-07-30T13:02:55.377Z,4.80
2022-07-30T13:05:55.689Z,5.93
2022-07-30T13:08:59.639Z,4.72
2022-07-30T13:11:37.877Z,3.78
2022-07-30T13:14:05.973Z,5.90
2022-07-30T13:16:35.690Z,3.10
2022-07-30T13:19:07.668Z,5.50
2022-07-30T13:21:35.757Z,4.78
2022-07-30T13:24:03.284Z,5.93
2022-07-30T13:26:31.666Z,2.58
2022-07-30T13:29:01.937Z,4.15
2022-07-30T13:31:42.635Z,2.83
2022-07-30T13:34:12.332Z,5.72
2022-07-30T13:36:40.535Z,3.65
2022-07-30T13:39:08.069Z,5.25
2022-07-30T13:41:37.609Z,5.20
2022-07-30T13:44:05.157Z,4.07
2022-07-30T13:46:32.771Z,5.88
2022-07-30T13:49:00.843Z,3.83
2022-07-30T13:51:28.538Z,1.75
2022-07-30T13:53:56.419Z,9.38
2022-07-30T13:56:23.980Z,3.20
2022-07-30T13:58:52.179Z,4.05
2022-07-30T14:01:23.003Z,3.80
2022-07-30T14:03:51.169Z,4.63
2022-07-30T14:06:23.274Z,3.33
2022-07-30T14:08:51.236Z,6.05
2022-07-30T14:11:21.765Z,3.50
2022-07-30T14:13:49.877Z,4.25
2022-07-30T14:16:43.628Z,11.10
2022-07-30T14:19:08.494Z,6.72
2022-07-30T14:21:51.083Z,3.35
2022-07-30T14:24:19.111Z,4.50
2022-07-30T14:26:47.750Z,2.38
2022-07-30T14:29:16.514Z,4.75
2022-07-30T14:31:45.437Z,7.13
2022-07-30T14:34:13.768Z,5.00
2022-07-30T14:36:44.084Z,2.58
2022-07-30T14:39:18.560Z,4.50
2022-07-30T14:41:52.454Z,2.97
2022-07-30T14:44:24.264Z,6.55
2022-07-30T14:46:52.977Z,3.30
2022-07-30T14:49:22.771Z,5.53
2022-07-30T14:51:50.708Z,4.80
2022-07-30T14:54:18.956Z,7.25
2022-07-30T14:56:57.726Z,4.03
2022-07-30T14:59:33.569Z,4.95
2022-07-30T15:02:02.395Z,4.68
2022-07-30T15:04:31.010Z,2.90
2022-07-30T15:06:58.798Z,6.93
2022-07-30T15:09:27.212Z,2.92
2022-07-30T15:12:09.423Z,4.43
2022-07-30T15:14:42.655Z,4.18
2022-07-30T15:17:13.437Z,7.10
2022-07-30T15:19:49.309Z,4.10
2022-07-30T15:22:20.633Z,5.72
2022-07-30T15:24:49.969Z,5.18
2022-07-30T15:27:22.367Z,4.53
2022-07-30T15:29:56.511Z,6.03
2022-07-30T15:32:27.395Z,7.50
2022-07-30T15:34:56.790Z,5.97
2022-07-30T15:37:24.740Z,3.83
2022-07-30T15:39:52.186Z,4.25
2022-07-30T15:42:20.218Z,7.40
2022-07-30T15:45:15.507Z,5.50
2022-07-30T15:47:42.872Z,5.38
2022-07-30T15:50:10.629Z,6.18
2022-07-30T15:52:38.973Z,2.85
2022-07-30T15:55:07.775Z,7.13
2022-07-30T15:57:37.006Z,10.32
2022-07-30T16:00:08.335Z,3.13
2022-07-30T16:02:43.785Z,5.07
2022-07-30T16:05:17.896Z,5.97
2022-07-30T16:07:46.981Z,4.00
2022-07-30T16:10:15.478Z,3.03
2022-07-30T16:12:43.045Z,3.58
2022-07-30T16:15:10.851Z,6.43
2022-07-30T16:17:38.846Z,4.97
2022-07-30T16:20:06.802Z,7.45
2022-07-30T16:22:34.892Z,6.22
2022-07-30T16:25:02.392Z,4.60
2022-07-30T16:27:29.896Z,10.70
2022-07-30T16:29:57.991Z,4.47
2022-07-30T16:32:25.659Z,7.80
2022-07-30T16:34:56.925Z,4.43
2022-07-30T16:37:24.686Z,4.20
2022-07-30T16:39:52.309Z,7.25
2022-07-30T16:42:23.773Z,3.95
2022-07-30T16:44:51.535Z,4.45
2022-07-30T16:47:18.888Z,4.20
2022-07-30T16:49:47.208Z,4.03
2022-07-30T16:52:16.871Z,4.47
2022-07-30T16:54:46.737Z,4.55
2022-07-30T16:57:15.447Z,7.03
2022-07-30T16:59:43.777Z,7.50
2022-07-30T17:02:12.567Z,3.63
2022-07-30T17:04:40.175Z,6.30
2022-07-30T17:07:07.632Z,4.80
2022-07-30T17:09:36.552Z,4.30
2022-07-30T17:12:07.313Z,6.53
2022-07-30T17:14:42.125Z,4.47
2022-07-30T17:17:14.013Z,4.53
2022-07-30T17:19:43.392Z,3.63
2022-07-30T17:22:11.335Z,7.18
2022-07-30T17:24:38.928Z,4.97
2022-07-30T17:27:07.289Z,5.28
2022-07-30T17:29:50.283Z,3.72
2022-07-30T17:32:20.643Z,3.05
2022-07-30T17:34:49.403Z,4.65
2022-07-30T17:37:17.597Z,5.15
2022-07-30T17:40:27.576Z,4.85
2022-07-30T17:42:36.030Z,3.30
2022-07-30T17:45:05.339Z,4.22
2022-07-30T17:47:33.068Z,8.30
2022-07-30T17:50:03.590Z,6.47
2022-07-30T17:52:32.596Z,5.22
2022-07-30T17:55:00.186Z,5.30
2022-07-30T17:57:27.826Z,5.03
2022-07-30T17:59:55.683Z,3.53
2022-07-30T18:02:28.996Z,7.88
2022-07-30T18:04:57.323Z,3.65
2022-07-30T18:07:25.787Z,4.30
2022-07-30T18:09:54.482Z,3.75
2022-07-30T18:12:25.734Z,2.35
2022-07-30T18:14:53.792Z,4.35
2022-07-30T18:17:21.501Z,7.75
2022-07-30T18:19:50.078Z,5.78
2022-07-30T18:22:29.335Z,3.15
2022-07-30T18:25:00.736Z,3.23
2022-07-30T18:27:28.490Z,4.60
2022-07-30T18:29:56.221Z,4.78
2022-07-30T18:32:25.692Z,2.78
2022-07-30T18:34:53.626Z,7.60
2022-07-30T18:37:21.747Z,5.20
2022-07-30T18:39:51.075Z,3.15
2022-07-30T18:42:18.868Z,3.63
2022-07-30T18:44:49.563Z,3.95
2022-07-30T18:47:19.170Z,6.18
2022-07-30T18:49:49.451Z,3.85
2022-07-30T18:52:18.105Z,3.72
2022-07-30T18:54:47.253Z,5.80
2022-07-30T18:57:15.720Z,3.27
2022-07-30T18:59:43.562Z,4.78
2022-07-30T19:02:15.838Z,4.47
2022-07-30T19:04:48.163Z,5.00
2022-07-30T19:07:19.646Z,5.40
2022-07-30T19:09:48.874Z,4.82
2022-07-30T19:12:17.737Z,5.97
2022-07-30T19:14:48.817Z,5.93
2022-07-30T19:17:18.285Z,4.63
2022-07-30T19:19:48.764Z,4.82
2022-07-30T19:22:17.543Z,7.25
2022-07-30T19:25:00.031Z,5.88
2022-07-30T19:27:41.807Z,5.13
2022-07-30T19:30:10.438Z,5.90
2022-07-30T19:32:43.362Z,5.00
2022-07-30T19:35:13.582Z,3.28
2022-07-30T19:37:47.871Z,3.20
2022-07-30T19:40:18.966Z,6.25
2022-07-30T19:42:47.725Z,7.35
2022-07-30T19:45:22.327Z,4.18
2022-07-30T19:47:49.877Z,4.95
2022-07-30T19:50:18.493Z,3.78
2022-07-30T19:52:51.559Z,8.38
2022-07-30T19:55:30.915Z,5.20
2022-07-30T19:58:16.124Z,7.22
2022-07-30T20:00:50.444Z,6.18
2022-07-30T20:03:25.994Z,4.95
2022-07-30T20:06:00.405Z,7.18
2022-07-30T20:08:31.590Z,5.72
2022-07-30T20:11:08.771Z,4.80
2022-07-30T20:16:24.370Z,6.85
2022-07-30T20:18:53.060Z,4.80
2022-07-30T20:21:21.509Z,5.25
2022-07-30T20:24:09.550Z,7.68
2022-07-30T20:26:37.379Z,8.68
2022-07-30T20:31:55.237Z,5.10
2022-07-30T20:34:26.068Z,8.05
2022-07-30T20:36:56.531Z,6.05
2022-07-30T20:39:25.698Z,4.13
2022-07-30T20:42:08.134Z,10.90
2022-07-30T20:44:37.919Z,5.25
2022-07-30T20:47:08.512Z,7.00
2022-07-30T20:49:37.800Z,4.85
2022-07-30T20:52:10.177Z,6.28
2022-07-30T20:54:43.779Z,4.40
2022-07-30T20:57:15.645Z,5.10
2022-07-30T20:59:48.203Z,4.88
2022-07-30T21:02:17.356Z,5.78
2022-07-30T21:04:59.211Z,5.20
2022-07-30T21:07:27.657Z,6.28
2022-07-30T21:10:05.456Z,5.63
2022-07-30T21:12:37.406Z,8.50
2022-07-30T21:15:23.021Z,5.75
2022-07-30T21:17:54.766Z,3.70
2022-07-30T21:23:03.831Z,3.55
2022-07-30T21:25:34.408Z,5.57
2022-07-30T21:28:27.766Z,3.08
2022-07-30T21:30:59.275Z,4.43
2022-07-30T21:33:31.221Z,7.55
2022-07-30T21:36:00.144Z,5.10
2022-07-30T21:38:28.678Z,5.60
2022-07-30T21:43:33.984Z,6.50
2022-07-30T21:46:03.881Z,6.75
2022-07-30T21:48:35.853Z,8.68
2022-07-30T21:51:04.236Z,14.73
2022-07-30T21:53:44.451Z,7.60
2022-07-30T21:56:13.696Z,4.97
2022-07-30T22:01:17.467Z,6.45
2022-07-30T22:04:01.711Z,9.80
2022-07-30T22:06:42.589Z,6.10
2022-07-30T22:09:19.610Z,4.07
2022-07-30T22:12:02.266Z,5.97
2022-07-30T22:14:36.053Z,4.32
2022-07-30T22:17:04.619Z,6.88
2022-07-30T22:19:34.829Z,15.13
2022-07-30T22:22:05.335Z,6.63
2022-07-30T22:24:51.453Z,4.82
2022-07-30T22:27:21.933Z,5.57
2022-07-30T22:29:50.591Z,3.72
2022-07-30T22:32:24.840Z,3.03
2022-07-30T22:34:54.518Z,7.68
2022-07-30T22:37:26.147Z,7.25
2022-07-30T22:40:02.160Z,3.00
2022-07-30T22:42:30.355Z,5.82
2022-07-30T22:44:57.940Z,5.47
2022-07-30T22:47:53.851Z,5.25
2022-07-30T22:50:17.405Z,4.80
2022-07-30T22:52:57.391Z,3.17
2022-07-30T22:55:30.242Z,5.10
2022-07-30T22:57:59.926Z,3.38
2022-07-30T23:00:28.607Z,4.60
2022-07-30T23:02:57.022Z,3.83
2022-07-30T23:05:32.268Z,2.80
2022-07-30T23:08:03.905Z,4.55
2022-07-30T23:10:34.460Z,3.83
2022-07-30T23:12:19.488Z,4.90
2022-07-30T23:13:02.005Z,8.00
2022-07-30T23:15:30.000Z,3.25
2022-07-30T23:17:57.592Z,6.28
2022-07-30T23:20:28.291Z,5.85
2022-07-30T23:22:57.499Z,4.47
2022-07-30T23:25:26.721Z,6.75
2022-07-30T23:28:18.814Z,7.07
2022-07-30T23:30:47.498Z,4.25
2022-07-30T23:33:18.504Z,7.05
2022-07-30T23:35:49.095Z,4.10
2022-07-30T23:38:20.267Z,5.80
2022-07-30T23:40:50.937Z,5.65
2022-07-30T23:43:19.281Z,3.00
2022-07-30T23:45:50.581Z,4.45
2022-07-30T23:48:18.293Z,3.22
2022-07-30T23:50:46.868Z,4.63
2022-07-30T23:53:15.521Z,5.03
2022-07-30T23:55:48.157Z,9.23
2022-07-30T23:58:16.961Z,7.38
